METAR AND TAF INFORMATION
METAR FOR SKAR
ADDS - METARS form results

(0230 UTC 19 August 2019)
Data provider http://aviationweather.gov/metar/data/
 
METAR text: SKAR 190200Z 00000KT 9999 SCT030 21/18 A2998
Conditions at: SKAR (ARMENIA/EL EDEN , CO) observed 0200 UTC 19 August 2019
Temperature: 21.0°C (70°F)
Dewpoint: 18.0°C (64°F) [RH = 83%]
Pressure (altimeter): 29.98 inches Hg (1015.3 mb)
Winds: calm
Visibility: 6 or more miles (10+ km)
Ceiling: at least 12,000 feet AGL
Clouds: scattered clouds at 3000 feet AGL
Weather: no significant weather observed at this time

 AIRPORT MAP

 RUNWAY INFORMATION
Runway 02 Runway length 7045 ft Runway width 118 ft
Runway elevation 3968 ft Runway displaced threshold 0 ft Runway heading 13
Runway 20 Runway length 7045 ft Runway width 118 ft
Runway elevation 3979 ft Runway displaced threshold 0 ft Runway heading 193

 AIRPORT FREQUENCIES
Type APP Name PEREIRA AP Frequency 119.9 MHZ
Type RDO Name ARMENIA RD Frequency 348.8 MHZ
Type TWR Name TWR Frequency 118.5 MHZ

 AIRPORT NEAR NAVIGATION AIDS
Type NDB Name Armenia Frequency 315 KHZ



Powered by Virtual Airlines Manager [v2.6.2]